sensor_id;sensor_type;location;lat;lon;timestamp;P1;durP1;ratioP1;P2;durP2;ratioP2
616;SDS011;295;51.628;7.520;2022-10-10T00:02:02;6.83;;;6.17;;
616;SDS011;295;51.628;7.520;2022-10-10T00:04:52;10.97;;;6.67;;
616;SDS011;295;51.628;7.520;2022-10-10T00:07:41;6.37;;;5.77;;
616;SDS011;295;51.628;7.520;2022-10-10T00:10:31;6.80;;;6.07;;
616;SDS011;295;51.628;7.520;2022-10-10T00:13:21;7.67;;;6.90;;
616;SDS011;295;51.628;7.520;2022-10-10T00:16:10;6.03;;;5.53;;
616;SDS011;295;51.628;7.520;2022-10-10T00:19:00;8.00;;;5.80;;
616;SDS011;295;51.628;7.520;2022-10-10T00:21:48;6.50;;;5.87;;
616;SDS011;295;51.628;7.520;2022-10-10T00:24:37;7.60;;;5.07;;
616;SDS011;295;51.628;7.520;2022-10-10T00:27:26;6.97;;;6.20;;
616;SDS011;295;51.628;7.520;2022-10-10T00:30:16;6.40;;;5.80;;
616;SDS011;295;51.628;7.520;2022-10-10T00:33:05;7.57;;;6.77;;
616;SDS011;295;51.628;7.520;2022-10-10T00:35:54;6.80;;;5.87;;
616;SDS011;295;51.628;7.520;2022-10-10T00:38:43;7.20;;;5.93;;
616;SDS011;295;51.628;7.520;2022-10-10T00:41:32;6.57;;;5.83;;
616;SDS011;295;51.628;7.520;2022-10-10T00:44:21;7.33;;;6.47;;
616;SDS011;295;51.628;7.520;2022-10-10T00:47:11;9.30;;;6.50;;
616;SDS011;295;51.628;7.520;2022-10-10T00:50:00;6.80;;;6.13;;
616;SDS011;295;51.628;7.520;2022-10-10T00:52:49;6.50;;;5.90;;
616;SDS011;295;51.628;7.520;2022-10-10T00:55:39;7.47;;;6.83;;
616;SDS011;295;51.628;7.520;2022-10-10T00:58:28;7.77;;;6.80;;
616;SDS011;295;51.628;7.520;2022-10-10T01:01:17;5.87;;;5.33;;
616;SDS011;295;51.628;7.520;2022-10-10T01:07:12;6.73;;;5.20;;
616;SDS011;295;51.628;7.520;2022-10-10T01:10:04;6.27;;;5.30;;
616;SDS011;295;51.628;7.520;2022-10-10T01:13:06;6.60;;;6.00;;
616;SDS011;295;51.628;7.520;2022-10-10T01:15:58;9.43;;;5.83;;
616;SDS011;295;51.628;7.520;2022-10-10T01:18:50;6.30;;;5.60;;
616;SDS011;295;51.628;7.520;2022-10-10T01:21:44;5.67;;;5.17;;
616;SDS011;295;51.628;7.520;2022-10-10T01:24:41;6.83;;;6.10;;
616;SDS011;295;51.628;7.520;2022-10-10T01:27:37;6.50;;;5.53;;
616;SDS011;295;51.628;7.520;2022-10-10T01:30:30;7.13;;;5.47;;
616;SDS011;295;51.628;7.520;2022-10-10T01:33:23;6.60;;;5.97;;
616;SDS011;295;51.628;7.520;2022-10-10T01:36:19;5.83;;;5.27;;
616;SDS011;295;51.628;7.520;2022-10-10T01:39:12;6.07;;;5.57;;
616;SDS011;295;51.628;7.520;2022-10-10T01:42:03;6.33;;;5.73;;
616;SDS011;295;51.628;7.520;2022-10-10T01:44:54;6.50;;;6.00;;
616;SDS011;295;51.628;7.520;2022-10-10T01:47:44;6.33;;;5.70;;
616;SDS011;295;51.628;7.520;2022-10-10T01:50:34;5.97;;;5.40;;
616;SDS011;295;51.628;7.520;2022-10-10T01:53:34;5.73;;;5.20;;
616;SDS011;295;51.628;7.520;2022-10-10T01:56:28;5.80;;;5.10;;
616;SDS011;295;51.628;7.520;2022-10-10T01:59:24;7.10;;;5.30;;
616;SDS011;295;51.628;7.520;2022-10-10T02:02:18;7.53;;;5.30;;
616;SDS011;295;51.628;7.520;2022-10-10T02:05:13;6.77;;;5.30;;
616;SDS011;295;51.628;7.520;2022-10-10T02:08:05;6.03;;;5.53;;
616;SDS011;295;51.628;7.520;2022-10-10T02:10:55;6.10;;;5.23;;
616;SDS011;295;51.628;7.520;2022-10-10T02:13:47;6.13;;;5.53;;
616;SDS011;295;51.628;7.520;2022-10-10T02:16:37;6.00;;;5.40;;
616;SDS011;295;51.628;7.520;2022-10-10T02:19:26;6.73;;;4.90;;
616;SDS011;295;51.628;7.520;2022-10-10T02:22:17;8.70;;;5.83;;
616;SDS011;295;51.628;7.520;2022-10-10T02:25:07;5.70;;;5.20;;
616;SDS011;295;51.628;7.520;2022-10-10T02:27:58;5.17;;;4.77;;
616;SDS011;295;51.628;7.520;2022-10-10T02:30:51;7.07;;;5.50;;
616;SDS011;295;51.628;7.520;2022-10-10T02:33:43;7.50;;;6.20;;
616;SDS011;295;51.628;7.520;2022-10-10T02:36:32;6.63;;;5.93;;
616;SDS011;295;51.628;7.520;2022-10-10T02:39:25;5.60;;;5.10;;
616;SDS011;295;51.628;7.520;2022-10-10T02:42:16;7.20;;;6.30;;
616;SDS011;295;51.628;7.520;2022-10-10T02:45:07;6.53;;;5.83;;
616;SDS011;295;51.628;7.520;2022-10-10T02:47:56;6.27;;;5.73;;
616;SDS011;295;51.628;7.520;2022-10-10T02:50:44;7.80;;;5.70;;
616;SDS011;295;51.628;7.520;2022-10-10T02:53:33;6.20;;;5.60;;
616;SDS011;295;51.628;7.520;2022-10-10T02:56:26;6.10;;;5.40;;
616;SDS011;295;51.628;7.520;2022-10-10T02:59:14;6.53;;;5.93;;
616;SDS011;295;51.628;7.520;2022-10-10T03:02:03;6.77;;;6.07;;
616;SDS011;295;51.628;7.520;2022-10-10T03:04:53;6.50;;;5.80;;
616;SDS011;295;51.628;7.520;2022-10-10T03:07:43;6.63;;;5.93;;
616;SDS011;295;51.628;7.520;2022-10-10T03:10:33;9.30;;;6.30;;
616;SDS011;295;51.628;7.520;2022-10-10T03:13:23;9.07;;;6.20;;
616;SDS011;295;51.628;7.520;2022-10-10T03:16:12;6.17;;;5.30;;
616;SDS011;295;51.628;7.520;2022-10-10T03:19:01;11.87;;;6.10;;
616;SDS011;295;51.628;7.520;2022-10-10T03:21:50;8.27;;;5.80;;
616;SDS011;295;51.628;7.520;2022-10-10T03:24:38;7.73;;;5.73;;
616;SDS011;295;51.628;7.520;2022-10-10T03:27:27;9.00;;;6.20;;
616;SDS011;295;51.628;7.520;2022-10-10T03:30:17;6.50;;;5.90;;
616;SDS011;295;51.628;7.520;2022-10-10T03:33:07;6.70;;;5.60;;
616;SDS011;295;51.628;7.520;2022-10-10T03:35:56;6.67;;;6.10;;
616;SDS011;295;51.628;7.520;2022-10-10T03:38:44;8.43;;;6.47;;
616;SDS011;295;51.628;7.520;2022-10-10T03:41:33;7.03;;;6.33;;
616;SDS011;295;51.628;7.520;2022-10-10T03:44:22;9.33;;;6.03;;
616;SDS011;295;51.628;7.520;2022-10-10T03:47:13;7.43;;;6.20;;
616;SDS011;295;51.628;7.520;2022-10-10T03:50:02;8.53;;;5.73;;
616;SDS011;295;51.628;7.520;2022-10-10T03:52:50;6.63;;;5.70;;
616;SDS011;295;51.628;7.520;2022-10-10T03:55:39;6.60;;;5.60;;
616;SDS011;295;51.628;7.520;2022-10-10T03:58:28;8.27;;;6.30;;
616;SDS011;295;51.628;7.520;2022-10-10T04:01:17;6.63;;;5.90;;
616;SDS011;295;51.628;7.520;2022-10-10T04:04:08;7.30;;;6.43;;
616;SDS011;295;51.628;7.520;2022-10-10T04:06:56;9.23;;;6.00;;
616;SDS011;295;51.628;7.520;2022-10-10T04:09:45;7.93;;;6.13;;
616;SDS011;295;51.628;7.520;2022-10-10T04:12:34;7.53;;;6.60;;
616;SDS011;295;51.628;7.520;2022-10-10T04:15:23;6.50;;;5.90;;
616;SDS011;295;51.628;7.520;2022-10-10T04:18:12;7.70;;;6.23;;
616;SDS011;295;51.628;7.520;2022-10-10T04:21:03;7.07;;;6.37;;
616;SDS011;295;51.628;7.520;2022-10-10T04:23:52;6.70;;;5.87;;
616;SDS011;295;51.628;7.520;2022-10-10T04:26:40;8.60;;;6.50;;
616;SDS011;295;51.628;7.520;2022-10-10T04:29:29;6.00;;;5.40;;
616;SDS011;295;51.628;7.520;2022-10-10T04:32:18;7.00;;;5.50;;
616;SDS011;295;51.628;7.520;2022-10-10T04:35:07;7.03;;;5.80;;
616;SDS011;295;51.628;7.520;2022-10-10T04:37:58;7.93;;;5.47;;
616;SDS011;295;51.628;7.520;2022-10-10T04:40:47;6.50;;;5.67;;
616;SDS011;295;51.628;7.520;2022-10-10T04:43:36;6.33;;;5.77;;
616;SDS011;295;51.628;7.520;2022-10-10T04:46:25;6.23;;;5.63;;
616;SDS011;295;51.628;7.520;2022-10-10T04:49:14;6.43;;;5.47;;
616;SDS011;295;51.628;7.520;2022-10-10T04:52:03;6.73;;;5.53;;
616;SDS011;295;51.628;7.520;2022-10-10T04:54:53;6.27;;;5.33;;
616;SDS011;295;51.628;7.520;2022-10-10T04:57:42;7.00;;;6.30;;
616;SDS011;295;51.628;7.520;2022-10-10T05:00:31;5.90;;;5.20;;
616;SDS011;295;51.628;7.520;2022-10-10T05:03:20;5.93;;;5.43;;
616;SDS011;295;51.628;7.520;2022-10-10T05:06:09;6.27;;;5.67;;
616;SDS011;295;51.628;7.520;2022-10-10T05:08:58;10.03;;;5.80;;
616;SDS011;295;51.628;7.520;2022-10-10T05:11:48;6.33;;;5.83;;
616;SDS011;295;51.628;7.520;2022-10-10T05:14:37;6.50;;;5.70;;
616;SDS011;295;51.628;7.520;2022-10-10T05:17:31;6.53;;;5.87;;
616;SDS011;295;51.628;7.520;2022-10-10T05:20:20;8.63;;;7.27;;
616;SDS011;295;51.628;7.520;2022-10-10T05:23:10;5.80;;;5.20;;
616;SDS011;295;51.628;7.520;2022-10-10T05:25:59;7.30;;;6.27;;
616;SDS011;295;51.628;7.520;2022-10-10T05:28:49;5.43;;;4.97;;
616;SDS011;295;51.628;7.520;2022-10-10T05:31:38;8.50;;;5.70;;
616;SDS011;295;51.628;7.520;2022-10-10T05:34:27;6.10;;;5.50;;
616;SDS011;295;51.628;7.520;2022-10-10T05:37:15;6.33;;;5.70;;
616;SDS011;295;51.628;7.520;2022-10-10T05:40:05;9.07;;;6.20;;
616;SDS011;295;51.628;7.520;2022-10-10T05:42:54;7.03;;;6.33;;
616;SDS011;295;51.628;7.520;2022-10-10T05:45:45;7.87;;;6.60;;
616;SDS011;295;51.628;7.520;2022-10-10T05:48:34;7.67;;;7.00;;
616;SDS011;295;51.628;7.520;2022-10-10T05:51:23;10.13;;;8.43;;
616;SDS011;295;51.628;7.520;2022-10-10T05:54:12;9.50;;;8.50;;
616;SDS011;295;51.628;7.520;2022-10-10T05:57:01;10.43;;;8.60;;
616;SDS011;295;51.628;7.520;2022-10-10T05:59:50;14.00;;;9.40;;
616;SDS011;295;51.628;7.520;2022-10-10T06:02:40;9.70;;;7.60;;
616;SDS011;295;51.628;7.520;2022-10-10T06:05:29;9.70;;;8.10;;
616;SDS011;295;51.628;7.520;2022-10-10T06:08:18;9.93;;;8.77;;
616;SDS011;295;51.628;7.520;2022-10-10T06:11:07;9.00;;;8.07;;
616;SDS011;295;51.628;7.520;2022-10-10T06:13:56;8.97;;;8.07;;
616;SDS011;295;51.628;7.520;2022-10-10T06:16:45;12.53;;;8.43;;
616;SDS011;295;51.628;7.520;2022-10-10T06:19:35;10.17;;;8.10;;
616;SDS011;295;51.628;7.520;2022-10-10T06:22:25;9.30;;;8.40;;
616;SDS011;295;51.628;7.520;2022-10-10T06:25:14;11.00;;;8.40;;
616;SDS011;295;51.628;7.520;2022-10-10T06:28:23;9.03;;;8.13;;
616;SDS011;295;51.628;7.520;2022-10-10T06:31:12;11.47;;;9.40;;
616;SDS011;295;51.628;7.520;2022-10-10T06:34:01;9.57;;;8.57;;
616;SDS011;295;51.628;7.520;2022-10-10T06:36:52;9.10;;;8.20;;
616;SDS011;295;51.628;7.520;2022-10-10T06:39:41;9.93;;;8.87;;
616;SDS011;295;51.628;7.520;2022-10-10T06:42:29;9.77;;;8.23;;
616;SDS011;295;51.628;7.520;2022-10-10T06:45:18;8.70;;;7.73;;
616;SDS011;295;51.628;7.520;2022-10-10T06:48:08;9.03;;;7.43;;
616;SDS011;295;51.628;7.520;2022-10-10T06:50:57;8.90;;;7.23;;
616;SDS011;295;51.628;7.520;2022-10-10T06:53:48;9.17;;;7.30;;
616;SDS011;295;51.628;7.520;2022-10-10T06:56:37;7.13;;;6.43;;
616;SDS011;295;51.628;7.520;2022-10-10T06:59:26;8.30;;;6.27;;
616;SDS011;295;51.628;7.520;2022-10-10T07:02:14;7.67;;;6.80;;
616;SDS011;295;51.628;7.520;2022-10-10T07:05:04;6.67;;;5.20;;
616;SDS011;295;51.628;7.520;2022-10-10T07:07:53;5.70;;;4.93;;
616;SDS011;295;51.628;7.520;2022-10-10T07:10:43;4.63;;;4.00;;
616;SDS011;295;51.628;7.520;2022-10-10T07:13:32;6.73;;;3.43;;
616;SDS011;295;51.628;7.520;2022-10-10T07:16:21;6.00;;;3.70;;
616;SDS011;295;51.628;7.520;2022-10-10T07:19:10;4.70;;;3.50;;
616;SDS011;295;51.628;7.520;2022-10-10T07:21:59;5.67;;;4.00;;
616;SDS011;295;51.628;7.520;2022-10-10T07:24:48;3.80;;;3.10;;
616;SDS011;295;51.628;7.520;2022-10-10T07:27:38;4.67;;;3.37;;
616;SDS011;295;51.628;7.520;2022-10-10T07:30:27;4.20;;;3.77;;
616;SDS011;295;51.628;7.520;2022-10-10T07:33:16;4.50;;;3.67;;
616;SDS011;295;51.628;7.520;2022-10-10T07:36:05;6.80;;;4.47;;
616;SDS011;295;51.628;7.520;2022-10-10T07:38:54;6.13;;;5.17;;
616;SDS011;295;51.628;7.520;2022-10-10T07:41:43;6.63;;;4.10;;
616;SDS011;295;51.628;7.520;2022-10-10T07:44:33;4.83;;;4.30;;
616;SDS011;295;51.628;7.520;2022-10-10T07:47:22;6.70;;;4.57;;
616;SDS011;295;51.628;7.520;2022-10-10T07:50:11;5.23;;;4.73;;
616;SDS011;295;51.628;7.520;2022-10-10T07:52:59;4.97;;;4.57;;
616;SDS011;295;51.628;7.520;2022-10-10T07:55:48;12.60;;;4.70;;
616;SDS011;295;51.628;7.520;2022-10-10T07:58:37;9.50;;;4.10;;
616;SDS011;295;51.628;7.520;2022-10-10T08:01:28;5.67;;;4.53;;
616;SDS011;295;51.628;7.520;2022-10-10T08:04:17;5.90;;;4.30;;
616;SDS011;295;51.628;7.520;2022-10-10T08:07:06;5.07;;;3.80;;
616;SDS011;295;51.628;7.520;2022-10-10T08:09:55;8.52;;;4.70;;
616;SDS011;295;51.628;7.520;2022-10-10T08:12:43;6.00;;;4.20;;
616;SDS011;295;51.628;7.520;2022-10-10T08:15:32;6.63;;;4.47;;
616;SDS011;295;51.628;7.520;2022-10-10T08:18:23;5.13;;;4.00;;
616;SDS011;295;51.628;7.520;2022-10-10T08:21:12;5.83;;;3.97;;
616;SDS011;295;51.628;7.520;2022-10-10T08:24:01;8.10;;;3.80;;
616;SDS011;295;51.628;7.520;2022-10-10T08:26:50;5.47;;;3.43;;
616;SDS011;295;51.628;7.520;2022-10-10T08:29:39;4.33;;;3.10;;
616;SDS011;295;51.628;7.520;2022-10-10T08:32:28;4.13;;;2.73;;
616;SDS011;295;51.628;7.520;2022-10-10T08:35:18;4.17;;;3.07;;
616;SDS011;295;51.628;7.520;2022-10-10T08:38:07;4.13;;;2.77;;
616;SDS011;295;51.628;7.520;2022-10-10T08:40:55;4.90;;;3.13;;
616;SDS011;295;51.628;7.520;2022-10-10T08:43:46;3.33;;;2.70;;
616;SDS011;295;51.628;7.520;2022-10-10T08:46:38;5.70;;;3.10;;
616;SDS011;295;51.628;7.520;2022-10-10T08:49:29;4.90;;;2.10;;
616;SDS011;295;51.628;7.520;2022-10-10T08:52:24;6.73;;;3.07;;
616;SDS011;295;51.628;7.520;2022-10-10T08:55:16;4.35;;;2.28;;
616;SDS011;295;51.628;7.520;2022-10-10T08:58:09;4.38;;;2.72;;
616;SDS011;295;51.628;7.520;2022-10-10T09:01:01;4.63;;;2.13;;
616;SDS011;295;51.628;7.520;2022-10-10T09:03:54;4.38;;;2.13;;
616;SDS011;295;51.628;7.520;2022-10-10T09:06:48;3.22;;;2.30;;
616;SDS011;295;51.628;7.520;2022-10-10T09:09:42;6.68;;;2.90;;
616;SDS011;295;51.628;7.520;2022-10-10T09:12:32;6.03;;;3.20;;
616;SDS011;295;51.628;7.520;2022-10-10T09:15:28;3.75;;;3.25;;
616;SDS011;295;51.628;7.520;2022-10-10T09:18:20;5.55;;;3.58;;
616;SDS011;295;51.628;7.520;2022-10-10T09:21:12;7.07;;;3.20;;
616;SDS011;295;51.628;7.520;2022-10-10T09:24:03;5.53;;;3.33;;
616;SDS011;295;51.628;7.520;2022-10-10T09:26:56;4.93;;;2.60;;
616;SDS011;295;51.628;7.520;2022-10-10T09:29:48;6.57;;;3.05;;
616;SDS011;295;51.628;7.520;2022-10-10T09:32:40;8.73;;;2.80;;
616;SDS011;295;51.628;7.520;2022-10-10T09:35:30;5.90;;;2.70;;
616;SDS011;295;51.628;7.520;2022-10-10T09:38:27;3.17;;;2.42;;
616;SDS011;295;51.628;7.520;2022-10-10T09:41:18;5.25;;;3.10;;
616;SDS011;295;51.628;7.520;2022-10-10T09:44:10;4.95;;;2.47;;
616;SDS011;295;51.628;7.520;2022-10-10T09:46:59;6.00;;;2.45;;
616;SDS011;295;51.628;7.520;2022-10-10T09:49:48;6.38;;;2.95;;
616;SDS011;295;51.628;7.520;2022-10-10T09:52:37;5.40;;;3.15;;
616;SDS011;295;51.628;7.520;2022-10-10T09:55:27;4.63;;;2.22;;
616;SDS011;295;51.628;7.520;2022-10-10T09:58:19;5.25;;;2.47;;
616;SDS011;295;51.628;7.520;2022-10-10T10:01:13;5.43;;;2.78;;
616;SDS011;295;51.628;7.520;2022-10-10T10:04:05;6.90;;;2.70;;
616;SDS011;295;51.628;7.520;2022-10-10T10:07:18;3.83;;;2.42;;
616;SDS011;295;51.628;7.520;2022-10-10T10:10:10;5.05;;;3.42;;
616;SDS011;295;51.628;7.520;2022-10-10T10:13:10;4.22;;;2.97;;
616;SDS011;295;51.628;7.520;2022-10-10T10:16:01;5.03;;;2.80;;
616;SDS011;295;51.628;7.520;2022-10-10T10:18:52;3.60;;;2.80;;
616;SDS011;295;51.628;7.520;2022-10-10T10:21:46;4.72;;;2.80;;
616;SDS011;295;51.628;7.520;2022-10-10T10:24:35;8.98;;;3.00;;
616;SDS011;295;51.628;7.520;2022-10-10T10:27:25;3.60;;;2.17;;
616;SDS011;295;51.628;7.520;2022-10-10T10:30:22;6.45;;;2.75;;
616;SDS011;295;51.628;7.520;2022-10-10T10:33:13;6.32;;;2.70;;
616;SDS011;295;51.628;7.520;2022-10-10T10:36:08;6.80;;;2.42;;
616;SDS011;295;51.628;7.520;2022-10-10T10:39:01;6.03;;;2.17;;
616;SDS011;295;51.628;7.520;2022-10-10T10:41:52;4.22;;;2.42;;
616;SDS011;295;51.628;7.520;2022-10-10T10:44:43;3.15;;;2.17;;
616;SDS011;295;51.628;7.520;2022-10-10T10:47:38;4.15;;;2.17;;
616;SDS011;295;51.628;7.520;2022-10-10T10:50:33;4.03;;;1.88;;
616;SDS011;295;51.628;7.520;2022-10-10T10:53:28;4.07;;;2.20;;
616;SDS011;295;51.628;7.520;2022-10-10T10:56:25;4.35;;;2.15;;
616;SDS011;295;51.628;7.520;2022-10-10T10:59:25;5.82;;;2.00;;
616;SDS011;295;51.628;7.520;2022-10-10T11:02:36;4.35;;;2.30;;
616;SDS011;295;51.628;7.520;2022-10-10T11:05:46;3.70;;;2.10;;
616;SDS011;295;51.628;7.520;2022-10-10T11:08:44;7.07;;;2.60;;
616;SDS011;295;51.628;7.520;2022-10-10T11:11:40;5.47;;;2.10;;
616;SDS011;295;51.628;7.520;2022-10-10T11:14:39;3.28;;;1.70;;
616;SDS011;295;51.628;7.520;2022-10-10T11:17:34;7.47;;;2.40;;
616;SDS011;295;51.628;7.520;2022-10-10T11:20:25;3.80;;;2.35;;
616;SDS011;295;51.628;7.520;2022-10-10T11:23:16;3.88;;;2.00;;
616;SDS011;295;51.628;7.520;2022-10-10T11:26:09;3.58;;;1.35;;
616;SDS011;295;51.628;7.520;2022-10-10T11:29:01;2.92;;;2.38;;
616;SDS011;295;51.628;7.520;2022-10-10T11:31:52;8.70;;;2.53;;
616;SDS011;295;51.628;7.520;2022-10-10T11:34:44;6.35;;;2.30;;
616;SDS011;295;51.628;7.520;2022-10-10T11:37:36;4.30;;;2.08;;
616;SDS011;295;51.628;7.520;2022-10-10T11:40:29;3.42;;;1.88;;
616;SDS011;295;51.628;7.520;2022-10-10T11:43:24;5.43;;;2.58;;
616;SDS011;295;51.628;7.520;2022-10-10T11:46:18;8.02;;;2.30;;
616;SDS011;295;51.628;7.520;2022-10-10T11:49:12;4.95;;;1.95;;
616;SDS011;295;51.628;7.520;2022-10-10T11:52:12;6.47;;;2.10;;
616;SDS011;295;51.628;7.520;2022-10-10T11:55:21;4.75;;;2.35;;
616;SDS011;295;51.628;7.520;2022-10-10T12:01:21;3.53;;;2.00;;
616;SDS011;295;51.628;7.520;2022-10-10T12:04:11;4.78;;;1.45;;
616;SDS011;295;51.628;7.520;2022-10-10T12:07:01;3.28;;;2.08;;
616;SDS011;295;51.628;7.520;2022-10-10T12:09:51;4.35;;;2.28;;
616;SDS011;295;51.628;7.520;2022-10-10T12:12:42;3.90;;;2.92;;
616;SDS011;295;51.628;7.520;2022-10-10T12:15:33;2.38;;;1.90;;
616;SDS011;295;51.628;7.520;2022-10-10T12:18:37;5.70;;;2.13;;
616;SDS011;295;51.628;7.520;2022-10-10T12:21:27;4.15;;;1.70;;
616;SDS011;295;51.628;7.520;2022-10-10T12:24:16;5.75;;;2.53;;
616;SDS011;295;51.628;7.520;2022-10-10T12:30:30;9.30;;;2.25;;
616;SDS011;295;51.628;7.520;2022-10-10T12:33:20;4.55;;;2.10;;
616;SDS011;295;51.628;7.520;2022-10-10T12:39:32;8.45;;;2.38;;
616;SDS011;295;51.628;7.520;2022-10-10T12:42:25;5.47;;;2.70;;
616;SDS011;295;51.628;7.520;2022-10-10T12:48:18;9.23;;;2.67;;
616;SDS011;295;51.628;7.520;2022-10-10T12:51:16;5.93;;;2.25;;
616;SDS011;295;51.628;7.520;2022-10-10T12:54:06;8.98;;;2.70;;
616;SDS011;295;51.628;7.520;2022-10-10T12:57:03;3.78;;;2.03;;
616;SDS011;295;51.628;7.520;2022-10-10T12:59:53;5.47;;;2.88;;
616;SDS011;295;51.628;7.520;2022-10-10T13:02:49;8.57;;;2.85;;
616;SDS011;295;51.628;7.520;2022-10-10T13:05:39;5.07;;;2.10;;
616;SDS011;295;51.628;7.520;2022-10-10T13:08:28;4.70;;;2.20;;
616;SDS011;295;51.628;7.520;2022-10-10T13:11:17;4.70;;;2.43;;
616;SDS011;295;51.628;7.520;2022-10-10T13:14:09;5.77;;;2.20;;
616;SDS011;295;51.628;7.520;2022-10-10T13:16:58;7.87;;;3.47;;
616;SDS011;295;51.628;7.520;2022-10-10T13:19:47;5.50;;;2.00;;
616;SDS011;295;51.628;7.520;2022-10-10T13:22:36;4.93;;;2.40;;
616;SDS011;295;51.628;7.520;2022-10-10T13:25:30;4.13;;;2.07;;
616;SDS011;295;51.628;7.520;2022-10-10T13:28:19;9.53;;;3.47;;
616;SDS011;295;51.628;7.520;2022-10-10T13:31:10;5.87;;;3.20;;
616;SDS011;295;51.628;7.520;2022-10-10T13:34:01;6.90;;;2.37;;
616;SDS011;295;51.628;7.520;2022-10-10T13:36:51;7.30;;;2.20;;
616;SDS011;295;51.628;7.520;2022-10-10T13:39:41;3.63;;;2.33;;
616;SDS011;295;51.628;7.520;2022-10-10T13:42:31;4.30;;;2.40;;
616;SDS011;295;51.628;7.520;2022-10-10T13:45:28;8.83;;;2.60;;
616;SDS011;295;51.628;7.520;2022-10-10T13:48:28;6.73;;;3.60;;
616;SDS011;295;51.628;7.520;2022-10-10T13:51:39;9.57;;;4.80;;
616;SDS011;295;51.628;7.520;2022-10-10T13:54:38;4.55;;;3.20;;
616;SDS011;295;51.628;7.520;2022-10-10T13:57:28;10.68;;;2.85;;
616;SDS011;295;51.628;7.520;2022-10-10T14:00:18;7.30;;;3.30;;
616;SDS011;295;51.628;7.520;2022-10-10T14:03:11;8.70;;;2.28;;
616;SDS011;295;51.628;7.520;2022-10-10T14:06:03;7.55;;;2.95;;
616;SDS011;295;51.628;7.520;2022-10-10T14:08:52;4.03;;;2.55;;
616;SDS011;295;51.628;7.520;2022-10-10T14:11:42;12.55;;;4.20;;
616;SDS011;295;51.628;7.520;2022-10-10T14:14:32;9.07;;;2.83;;
616;SDS011;295;51.628;7.520;2022-10-10T14:17:21;5.78;;;2.60;;
616;SDS011;295;51.628;7.520;2022-10-10T14:20:11;5.97;;;2.92;;
616;SDS011;295;51.628;7.520;2022-10-10T14:23:01;8.70;;;2.80;;
616;SDS011;295;51.628;7.520;2022-10-10T14:25:50;4.70;;;2.60;;
616;SDS011;295;51.628;7.520;2022-10-10T14:28:39;7.10;;;3.00;;
616;SDS011;295;51.628;7.520;2022-10-10T14:31:28;7.20;;;3.60;;
616;SDS011;295;51.628;7.520;2022-10-10T14:34:17;8.43;;;3.20;;
616;SDS011;295;51.628;7.520;2022-10-10T14:37:08;8.07;;;3.13;;
616;SDS011;295;51.628;7.520;2022-10-10T14:39:59;6.10;;;2.87;;
616;SDS011;295;51.628;7.520;2022-10-10T14:42:48;3.80;;;3.03;;
616;SDS011;295;51.628;7.520;2022-10-10T14:45:37;5.63;;;3.40;;
616;SDS011;295;51.628;7.520;2022-10-10T14:48:27;6.20;;;2.47;;
616;SDS011;295;51.628;7.520;2022-10-10T14:51:16;6.30;;;2.80;;
616;SDS011;295;51.628;7.520;2022-10-10T14:54:21;16.30;;;3.90;;
616;SDS011;295;51.628;7.520;2022-10-10T14:57:12;4.28;;;3.08;;
616;SDS011;295;51.628;7.520;2022-10-10T15:00:01;12.88;;;9.43;;
616;SDS011;295;51.628;7.520;2022-10-10T15:02:50;9.35;;;5.72;;
616;SDS011;295;51.628;7.520;2022-10-10T15:05:39;7.95;;;6.18;;
616;SDS011;295;51.628;7.520;2022-10-10T15:08:28;10.20;;;5.47;;
616;SDS011;295;51.628;7.520;2022-10-10T15:11:17;6.73;;;2.50;;
616;SDS011;295;51.628;7.520;2022-10-10T15:14:07;8.00;;;2.53;;
616;SDS011;295;51.628;7.520;2022-10-10T15:16:56;10.90;;;2.50;;
616;SDS011;295;51.628;7.520;2022-10-10T15:19:45;3.60;;;1.90;;
616;SDS011;295;51.628;7.520;2022-10-10T15:22:34;4.63;;;2.47;;
616;SDS011;295;51.628;7.520;2022-10-10T15:25:23;5.50;;;2.40;;
616;SDS011;295;51.628;7.520;2022-10-10T15:28:19;5.00;;;2.50;;
616;SDS011;295;51.628;7.520;2022-10-10T15:31:09;3.13;;;1.70;;
616;SDS011;295;51.628;7.520;2022-10-10T15:33:58;6.50;;;2.57;;
616;SDS011;295;51.628;7.520;2022-10-10T15:36:47;5.73;;;2.70;;
616;SDS011;295;51.628;7.520;2022-10-10T15:39:36;6.87;;;3.17;;
616;SDS011;295;51.628;7.520;2022-10-10T15:42:26;4.37;;;2.20;;
616;SDS011;295;51.628;7.520;2022-10-10T15:45:16;3.30;;;2.00;;
616;SDS011;295;51.628;7.520;2022-10-10T15:48:26;3.90;;;2.23;;
616;SDS011;295;51.628;7.520;2022-10-10T15:51:15;7.93;;;3.03;;
616;SDS011;295;51.628;7.520;2022-10-10T15:54:04;4.17;;;2.40;;
616;SDS011;295;51.628;7.520;2022-10-10T15:56:53;3.73;;;2.70;;
616;SDS011;295;51.628;7.520;2022-10-10T15:59:43;4.63;;;2.50;;
616;SDS011;295;51.628;7.520;2022-10-10T16:02:32;6.50;;;2.87;;
616;SDS011;295;51.628;7.520;2022-10-10T16:05:22;7.97;;;3.20;;
616;SDS011;295;51.628;7.520;2022-10-10T16:08:14;12.83;;;3.40;;
616;SDS011;295;51.628;7.520;2022-10-10T16:11:05;5.00;;;2.93;;
616;SDS011;295;51.628;7.520;2022-10-10T16:13:54;3.80;;;3.17;;
616;SDS011;295;51.628;7.520;2022-10-10T16:16:43;3.93;;;2.93;;
616;SDS011;295;51.628;7.520;2022-10-10T16:19:32;6.40;;;3.53;;
616;SDS011;295;51.628;7.520;2022-10-10T16:22:23;8.40;;;4.00;;
616;SDS011;295;51.628;7.520;2022-10-10T16:25:12;8.20;;;4.20;;
616;SDS011;295;51.628;7.520;2022-10-10T16:28:09;7.23;;;5.53;;
616;SDS011;295;51.628;7.520;2022-10-10T16:30:59;6.43;;;4.30;;
616;SDS011;295;51.628;7.520;2022-10-10T16:33:49;9.07;;;4.30;;
616;SDS011;295;51.628;7.520;2022-10-10T16:36:38;5.37;;;4.87;;
616;SDS011;295;51.628;7.520;2022-10-10T16:39:28;8.27;;;5.43;;
616;SDS011;295;51.628;7.520;2022-10-10T16:42:17;7.90;;;5.57;;
616;SDS011;295;51.628;7.520;2022-10-10T16:45:07;14.33;;;6.77;;
616;SDS011;295;51.628;7.520;2022-10-10T16:47:56;10.50;;;7.27;;
616;SDS011;295;51.628;7.520;2022-10-10T16:50:45;10.57;;;8.47;;
616;SDS011;295;51.628;7.520;2022-10-10T16:53:34;9.20;;;5.70;;
616;SDS011;295;51.628;7.520;2022-10-10T16:56:24;9.47;;;5.97;;
616;SDS011;295;51.628;7.520;2022-10-10T16:59:13;10.40;;;6.33;;
616;SDS011;295;51.628;7.520;2022-10-10T17:02:02;10.80;;;6.27;;
616;SDS011;295;51.628;7.520;2022-10-10T17:04:51;10.20;;;6.03;;
616;SDS011;295;51.628;7.520;2022-10-10T17:07:41;9.70;;;6.03;;
616;SDS011;295;51.628;7.520;2022-10-10T17:10:30;9.07;;;6.80;;
616;SDS011;295;51.628;7.520;2022-10-10T17:13:21;8.90;;;7.30;;
616;SDS011;295;51.628;7.520;2022-10-10T17:16:10;8.57;;;6.77;;
616;SDS011;295;51.628;7.520;2022-10-10T17:19:19;8.13;;;5.83;;
616;SDS011;295;51.628;7.520;2022-10-10T17:22:09;8.83;;;8.03;;
616;SDS011;295;51.628;7.520;2022-10-10T17:24:58;12.93;;;6.40;;
616;SDS011;295;51.628;7.520;2022-10-10T17:27:47;11.10;;;7.07;;
616;SDS011;295;51.628;7.520;2022-10-10T17:30:41;9.43;;;6.33;;
616;SDS011;295;51.628;7.520;2022-10-10T17:33:32;8.63;;;7.07;;
616;SDS011;295;51.628;7.520;2022-10-10T17:36:21;8.73;;;5.90;;
616;SDS011;295;51.628;7.520;2022-10-10T17:39:11;6.10;;;5.47;;
616;SDS011;295;51.628;7.520;2022-10-10T17:42:00;4.37;;;3.57;;
616;SDS011;295;51.628;7.520;2022-10-10T17:44:50;4.37;;;3.30;;
616;SDS011;295;51.628;7.520;2022-10-10T17:47:44;2.97;;;2.77;;
616;SDS011;295;51.628;7.520;2022-10-10T17:50:32;6.40;;;2.67;;
616;SDS011;295;51.628;7.520;2022-10-10T17:53:22;4.23;;;2.40;;
616;SDS011;295;51.628;7.520;2022-10-10T17:56:11;3.73;;;2.50;;
616;SDS011;295;51.628;7.520;2022-10-10T17:59:02;3.30;;;2.30;;
616;SDS011;295;51.628;7.520;2022-10-10T18:01:52;4.10;;;2.30;;
616;SDS011;295;51.628;7.520;2022-10-10T18:04:42;3.60;;;2.07;;
616;SDS011;295;51.628;7.520;2022-10-10T18:07:31;4.10;;;2.03;;
616;SDS011;295;51.628;7.520;2022-10-10T18:10:20;6.30;;;2.53;;
616;SDS011;295;51.628;7.520;2022-10-10T18:13:09;7.70;;;2.33;;
616;SDS011;295;51.628;7.520;2022-10-10T18:16:04;5.47;;;2.20;;
616;SDS011;295;51.628;7.520;2022-10-10T18:18:54;3.50;;;1.77;;
616;SDS011;295;51.628;7.520;2022-10-10T18:21:44;8.23;;;4.00;;
616;SDS011;295;51.628;7.520;2022-10-10T18:24:33;7.17;;;2.60;;
616;SDS011;295;51.628;7.520;2022-10-10T18:27:22;9.10;;;2.70;;
616;SDS011;295;51.628;7.520;2022-10-10T18:30:15;6.40;;;2.80;;
616;SDS011;295;51.628;7.520;2022-10-10T18:33:04;10.27;;;4.00;;